KILE/ILE METAR and TAF weather

Enter ICAO airport designator
Station Type Date Time Source
KILE METAR 2023/01/30 11:56 UTC NOAA

KILE 301156Z AUTO 36013KT 6SM BR OVC007 M02/M02 A3022 RMK AO2 SLP239 70005 T10171022 10017 21017 51008 FZRANO


Station Type Date Time Source
KILE Decoded METAR 2023/01/30 11:56 UTC NOAA

Killeen, Skylark Field Airport, TX, United States (KILE) 31-05N 097-41W
Jan 30, 2023 - 06:56 AM EST / 2023.01.30 1156 UTC
Wind: from the N (360 degrees) at 15 MPH (13 KT):0
Visibility: 6 mile(s):0
Sky conditions: overcast
Weather: mist
Temperature: 28.9 F (-1.7 C)
Windchill: 17 F (-8 C):1
Dew Point: 28.0 F (-2.2 C)
Relative Humidity: 96%
Pressure (altimeter): 30.22 in. Hg (1023 hPa)
Pressure tendency: 0.02 inches (0.8 hPa) higher than three hours ago
ob: KILE 301156Z AUTO 36013KT 6SM BR OVC007 M02/M02 A3022 RMK AO2 SLP239 70005 T10171022 10017 21017 51008 FZRANO
cycle: 12

Station Type Date Time Source
KILE TAF UTC NOAA

Error!

Example: see airport list